Time;durP1;ratioP1;P1;durP2;ratioP2;P2;SDS_P1;SDS_P2;PMS_P1;PMS_P2;Temp;Humidity;BMP_temperature;BMP_pressure;BME280_temperature;BME280_humidity;BME280_pressure;Samples;Min_cycle;Max_cycle;Signal;HPM_P1;HPM_P2
2021/10/26 00:01:39;;;;;;;4.47;4.07;;;7.40;99.90;;;;;;5075349;28;20184;-66
2021/10/26 00:04:07;;;;;;;4.55;3.90;;;7.50;99.90;;;;;;5075293;28;20470;-65
2021/10/26 00:06:33;;;;;;;4.25;3.35;;;7.50;99.90;;;;;;5074645;28;20167;-67
2021/10/26 00:08:59;;;;;;;3.20;3.00;;;7.50;99.90;;;;;;5075101;28;20705;-64
2021/10/26 00:11:24;;;;;;;4.10;3.80;;;7.50;99.90;;;;;;5075142;28;20977;-64
2021/10/26 00:13:50;;;;;;;4.13;3.67;;;7.40;99.90;;;;;;5074833;28;20194;-67
2021/10/26 00:16:16;;;;;;;5.53;4.00;;;7.40;99.90;;;;;;5074717;28;20657;-65
2021/10/26 00:18:41;;;;;;;4.17;3.77;;;7.40;99.90;;;;;;5074884;28;20199;-65
2021/10/26 00:21:07;;;;;;;4.60;3.70;;;7.30;99.90;;;;;;5074875;28;20417;-66
2021/10/26 00:23:33;;;;;;;5.17;4.10;;;7.30;99.90;;;;;;5074504;28;20180;-66
2021/10/26 00:25:58;;;;;;;5.50;4.03;;;7.30;99.90;;;;;;5074606;28;20220;-67
2021/10/26 00:28:24;;;;;;;4.27;3.90;;;7.30;99.90;;;;;;5074069;28;20207;-66
2021/10/26 00:30:50;;;;;;;3.93;3.63;;;7.20;99.90;;;;;;5074308;28;20172;-66
2021/10/26 00:33:15;;;;;;;4.43;4.00;;;7.20;99.90;;;;;;5074675;28;20169;-65
2021/10/26 00:35:41;;;;;;;6.53;3.80;;;7.20;99.90;;;;;;5074287;28;20211;-65
2021/10/26 00:38:07;;;;;;;4.30;4.00;;;7.20;99.90;;;;;;5074268;28;20200;-67
2021/10/26 00:40:32;;;;;;;4.63;3.83;;;7.20;99.90;;;;;;5074530;28;20207;-67
2021/10/26 00:42:58;;;;;;;4.60;3.37;;;7.20;99.90;;;;;;5074289;28;20203;-65
2021/10/26 00:45:24;;;;;;;3.57;3.27;;;7.30;99.90;;;;;;5074249;28;20202;-66
2021/10/26 00:47:50;;;;;;;4.17;3.77;;;7.30;99.90;;;;;;5073904;28;20434;-66
2021/10/26 00:50:15;;;;;;;5.60;4.77;;;7.30;99.90;;;;;;5074086;28;20220;-67
2021/10/26 00:52:43;;;;;;;5.97;4.20;;;7.40;99.90;;;;;;5074192;28;20203;-65
2021/10/26 00:55:09;;;;;;;4.47;4.07;;;7.40;99.90;;;;;;5074191;28;20198;-66
2021/10/26 00:57:35;;;;;;;5.50;4.43;;;7.50;99.90;;;;;;5073458;28;20195;-65
2021/10/26 01:00:01;;;;;;;3.50;3.00;;;7.50;99.90;;;;;;5073949;28;20188;-66
2021/10/26 01:02:26;;;;;;;4.70;4.10;;;7.60;99.90;;;;;;5073896;28;20182;-65
2021/10/26 01:04:52;;;;;;;3.17;2.90;;;7.70;99.90;;;;;;5074023;28;20303;-66
2021/10/26 01:07:18;;;;;;;4.57;4.17;;;7.70;99.90;;;;;;5073425;28;20647;-67
2021/10/26 01:09:45;;;;;;;3.95;3.55;;;7.80;99.90;;;;;;5073826;28;20249;-66
2021/10/26 01:12:11;;;;;;;3.50;3.20;;;7.80;99.90;;;;;;5073538;28;20168;-67
2021/10/26 01:14:38;;;;;;;3.75;3.45;;;7.80;99.90;;;;;;5073702;28;20183;-65
2021/10/26 01:17:09;;;;;;;4.70;4.25;;;8.00;99.90;;;;;;5072121;28;20173;-65
2021/10/26 01:19:52;;;;;;;3.35;3.15;;;7.90;99.90;;;;;;5073628;28;20233;-67
2021/10/26 01:22:19;;;;;;;3.72;3.42;;;8.00;99.90;;;;;;5073510;28;20184;-66
2021/10/26 01:24:45;;;;;;;7.25;4.10;;;8.00;99.90;;;;;;5073723;28;20180;-66
2021/10/26 01:27:11;;;;;;;5.55;4.78;;;8.10;99.90;;;;;;5073132;28;20179;-67
2021/10/26 01:29:37;;;;;;;5.27;4.77;;;8.10;99.90;;;;;;5074221;28;20208;-67
2021/10/26 01:32:08;;;;;;;4.13;3.72;;;8.10;99.90;;;;;;5073488;28;20172;-66
2021/10/26 01:34:34;;;;;;;5.07;4.35;;;8.20;99.90;;;;;;5073573;28;20164;-65
2021/10/26 01:37:01;;;;;;;5.57;5.03;;;8.20;99.90;;;;;;5073012;28;20593;-67
2021/10/26 01:39:31;;;;;;;7.05;4.05;;;8.20;99.90;;;;;;5073536;28;20399;-64
2021/10/26 01:41:58;;;;;;;3.80;3.47;;;8.20;99.90;;;;;;5073262;28;20180;-65
2021/10/26 01:44:24;;;;;;;3.97;3.63;;;8.30;99.90;;;;;;5071738;28;20178;-66
2021/10/26 01:46:51;;;;;;;4.57;4.17;;;8.20;99.90;;;;;;5072930;28;20175;-65
2021/10/26 01:49:18;;;;;;;3.85;3.50;;;8.30;99.90;;;;;;5073157;28;20204;-64
2021/10/26 01:51:44;;;;;;;4.20;3.90;;;8.30;99.90;;;;;;5073274;28;20177;-66
2021/10/26 01:54:10;;;;;;;5.32;4.40;;;8.40;99.90;;;;;;5073156;28;20180;-65
2021/10/26 01:56:36;;;;;;;4.73;4.33;;;8.40;99.90;;;;;;5072890;28;20172;-66
2021/10/26 01:59:02;;;;;;;5.33;4.83;;;8.40;99.90;;;;;;5071883;28;20528;-65
2021/10/26 02:01:28;;;;;;;6.75;5.13;;;8.50;99.90;;;;;;5071759;28;20983;-66
2021/10/26 02:03:54;;;;;;;4.67;4.23;;;8.40;99.90;;;;;;5073184;28;20261;-66
2021/10/26 02:06:20;;;;;;;3.70;3.40;;;8.40;99.90;;;;;;5072690;28;20268;-66
2021/10/26 02:08:46;;;;;;;3.50;3.20;;;8.40;99.90;;;;;;5073282;28;20353;-65
2021/10/26 02:11:12;;;;;;;3.40;3.20;;;8.40;99.90;;;;;;5073413;28;20777;-65
2021/10/26 02:13:38;;;;;;;4.93;3.60;;;8.30;99.90;;;;;;5073261;28;20174;-64
2021/10/26 02:16:04;;;;;;;4.70;4.10;;;8.30;99.90;;;;;;5073387;28;20183;-65
2021/10/26 02:18:31;;;;;;;3.83;3.50;;;8.30;99.90;;;;;;5072523;28;20476;-65
2021/10/26 02:20:58;;;;;;;4.00;3.67;;;8.30;99.90;;;;;;5073179;28;20249;-65
2021/10/26 02:23:24;;;;;;;4.05;3.65;;;8.20;99.90;;;;;;5072959;28;20173;-65
2021/10/26 02:25:50;;;;;;;4.47;3.97;;;8.10;99.90;;;;;;5072912;28;20244;-67
2021/10/26 02:28:15;;;;;;;4.03;3.73;;;8.10;99.90;;;;;;5071084;28;20561;-67
2021/10/26 02:30:42;;;;;;;3.07;2.77;;;8.00;99.90;;;;;;5073223;28;20255;-67
2021/10/26 02:33:08;;;;;;;4.10;3.80;;;8.00;99.90;;;;;;5072892;28;20199;-67
2021/10/26 02:35:34;;;;;;;5.60;4.82;;;8.00;99.90;;;;;;5072612;28;20196;-67
2021/10/26 02:38:00;;;;;;;3.80;3.50;;;8.00;99.90;;;;;;5072441;28;20188;-67
2021/10/26 02:40:27;;;;;;;3.20;2.90;;;7.90;99.90;;;;;;5072835;28;20412;-66
2021/10/26 02:42:53;;;;;;;4.20;3.80;;;7.90;99.90;;;;;;5072802;28;20651;-67
2021/10/26 02:45:19;;;;;;;4.35;3.97;;;7.90;99.90;;;;;;5072769;28;20183;-66
2021/10/26 02:47:45;;;;;;;4.03;3.63;;;7.80;99.90;;;;;;5070952;28;20199;-67
2021/10/26 02:50:12;;;;;;;4.15;3.60;;;7.80;99.90;;;;;;5072692;28;20469;-67
2021/10/26 02:52:38;;;;;;;4.65;3.85;;;7.70;99.90;;;;;;5072719;28;20590;-66
2021/10/26 02:55:05;;;;;;;4.68;4.28;;;7.70;99.90;;;;;;5074912;28;20226;-68
2021/10/26 02:57:30;;;;;;;3.10;2.83;;;7.70;99.90;;;;;;5075868;28;20184;-67
2021/10/26 02:59:56;;;;;;;4.87;4.30;;;7.60;99.90;;;;;;5076214;28;20237;-66
2021/10/26 03:02:22;;;;;;;4.03;3.73;;;7.60;99.90;;;;;;5074893;28;20200;-66
2021/10/26 03:04:47;;;;;;;4.87;4.30;;;7.60;99.90;;;;;;5075916;28;20590;-66
2021/10/26 03:07:13;;;;;;;4.10;3.77;;;7.60;99.90;;;;;;5075779;28;20539;-67
2021/10/26 03:09:38;;;;;;;4.93;4.40;;;7.60;99.90;;;;;;5075806;28;20199;-66
2021/10/26 03:12:04;;;;;;;4.10;3.70;;;7.60;99.90;;;;;;5076054;28;20628;-66
2021/10/26 03:14:30;;;;;;;5.13;4.25;;;7.60;99.90;;;;;;5076012;28;20213;-67
2021/10/26 03:16:56;;;;;;;6.23;4.37;;;7.60;99.90;;;;;;5075616;28;20195;-68
2021/10/26 03:19:21;;;;;;;4.47;4.07;;;7.60;99.90;;;;;;5075897;28;20260;-67
2021/10/26 03:21:47;;;;;;;4.37;4.00;;;7.60;99.90;;;;;;5074647;28;20190;-67
2021/10/26 03:24:13;;;;;;;4.83;4.43;;;7.60;99.90;;;;;;5075916;28;20180;-67
2021/10/26 03:26:38;;;;;;;4.40;4.10;;;7.60;99.90;;;;;;5075500;28;20651;-68
2021/10/26 03:29:04;;;;;;;3.93;3.63;;;7.60;99.90;;;;;;5075379;28;20257;-67
2021/10/26 03:31:30;;;;;;;5.17;4.77;;;7.50;99.90;;;;;;5075499;28;20327;-67
2021/10/26 03:33:55;;;;;;;5.27;4.83;;;7.50;99.90;;;;;;5075563;28;20180;-66
2021/10/26 03:36:21;;;;;;;6.17;4.37;;;7.50;99.90;;;;;;5075166;28;20441;-67
2021/10/26 03:38:49;;;;;;;4.40;4.00;;;7.50;99.90;;;;;;5075438;28;20211;-67
2021/10/26 03:41:15;;;;;;;6.32;4.47;;;7.50;99.90;;;;;;5075599;28;20513;-67
2021/10/26 03:43:41;;;;;;;4.90;4.37;;;7.50;99.90;;;;;;5074193;28;20178;-66
2021/10/26 03:46:07;;;;;;;3.93;3.63;;;7.50;99.90;;;;;;5075303;28;20236;-67
2021/10/26 03:48:32;;;;;;;4.37;3.97;;;7.50;99.90;;;;;;5074751;28;20488;-67
2021/10/26 03:50:58;;;;;;;4.30;3.90;;;7.50;99.90;;;;;;5075681;28;20195;-67
2021/10/26 03:53:24;;;;;;;4.90;3.93;;;7.60;99.90;;;;;;5075245;28;20174;-66
2021/10/26 03:55:49;;;;;;;6.03;3.90;;;7.60;99.90;;;;;;5075317;28;20175;-67
2021/10/26 03:58:15;;;;;;;4.60;3.97;;;7.60;99.90;;;;;;5074780;28;20192;-66
2021/10/26 04:00:41;;;;;;;5.07;3.77;;;7.60;99.90;;;;;;5075220;28;20632;-66
2021/10/26 04:03:06;;;;;;;4.60;4.20;;;7.70;99.90;;;;;;5075126;28;20165;-66
2021/10/26 04:05:49;;;;;;;5.73;4.33;;;7.70;99.90;;;;;;5074156;28;20171;-65
2021/10/26 04:08:58;;;;;;;4.93;4.35;;;7.80;99.90;;;;;;5073336;28;20189;-66
2021/10/26 04:11:06;;;;;;;3.92;3.63;;;7.80;99.90;;;;;;5074301;28;20180;-67
2021/10/26 04:13:32;;;;;;;3.42;3.00;;;7.80;99.90;;;;;;5074873;28;20636;-67
2021/10/26 04:15:57;;;;;;;6.43;3.50;;;7.90;99.90;;;;;;5075061;28;20303;-67
2021/10/26 04:18:24;;;;;;;5.53;4.00;;;7.90;99.90;;;;;;5074375;28;20181;-67
2021/10/26 04:20:50;;;;;;;5.45;4.13;;;8.00;99.90;;;;;;5074807;28;20173;-68
2021/10/26 04:23:16;;;;;;;14.18;4.72;;;8.00;99.90;;;;;;5074599;28;20229;-66
2021/10/26 04:25:41;;;;;;;6.80;4.73;;;8.10;99.90;;;;;;5074672;28;20176;-67
2021/10/26 04:28:07;;;;;;;5.87;3.83;;;8.10;99.90;;;;;;5074137;28;20195;-67
2021/10/26 04:30:34;;;;;;;4.30;3.90;;;8.20;99.90;;;;;;5073336;28;20197;-67
2021/10/26 04:33:01;;;;;;;3.88;3.58;;;8.30;99.90;;;;;;5074537;28;20177;-67
2021/10/26 04:35:27;;;;;;;5.30;4.80;;;8.30;99.90;;;;;;5074441;28;20598;-67
2021/10/26 04:37:53;;;;;;;4.30;3.97;;;8.30;99.90;;;;;;5072649;28;20196;-68
2021/10/26 04:40:19;;;;;;;5.87;5.27;;;8.30;99.90;;;;;;5074290;28;20405;-66
2021/10/26 04:42:45;;;;;;;4.60;4.20;;;8.30;99.90;;;;;;5074289;28;20252;-66
2021/10/26 04:45:10;;;;;;;4.03;3.80;;;8.30;99.90;;;;;;5074246;28;20786;-67
2021/10/26 04:47:36;;;;;;;4.53;4.07;;;8.30;99.90;;;;;;5073714;28;20196;-67
2021/10/26 04:50:04;;;;;;;4.53;4.10;;;8.30;99.90;;;;;;5074217;28;20205;-67
2021/10/26 04:52:29;;;;;;;4.95;4.50;;;8.30;99.90;;;;;;5074345;28;20966;-66
2021/10/26 04:54:55;;;;;;;5.70;4.70;;;8.40;99.90;;;;;;5074068;28;20271;-66
2021/10/26 04:57:20;;;;;;;6.73;6.17;;;8.30;99.90;;;;;;5073891;28;20227;-68
2021/10/26 04:59:46;;;;;;;5.40;4.60;;;8.30;99.90;;;;;;5073948;28;20251;-67
2021/10/26 05:02:12;;;;;;;5.93;5.40;;;8.30;99.90;;;;;;5073795;28;20168;-67
2021/10/26 05:04:38;;;;;;;4.03;3.63;;;8.30;99.90;;;;;;5073994;28;20414;-67
2021/10/26 05:07:03;;;;;;;6.57;4.77;;;8.30;99.90;;;;;;5073501;28;20217;-66
2021/10/26 05:09:29;;;;;;;5.23;4.43;;;8.30;99.90;;;;;;5072371;28;20204;-67
2021/10/26 05:11:55;;;;;;;4.13;3.83;;;8.30;99.90;;;;;;5073403;28;20176;-68
2021/10/26 05:14:20;;;;;;;8.73;4.10;;;8.40;99.90;;;;;;5072415;28;20411;-67
2021/10/26 05:16:47;;;;;;;5.47;4.60;;;8.30;99.90;;;;;;5072803;28;20752;-68
2021/10/26 05:19:13;;;;;;;5.43;4.93;;;8.30;99.90;;;;;;5072869;28;20192;-66
2021/10/26 05:21:39;;;;;;;4.28;3.88;;;8.30;99.90;;;;;;5073068;28;20176;-68
2021/10/26 05:24:05;;;;;;;3.70;3.40;;;8.20;99.90;;;;;;5072119;28;20731;-68
2021/10/26 05:26:34;;;;;;;6.90;4.83;;;8.30;99.90;;;;;;5073001;28;20182;-67
2021/10/26 05:29:00;;;;;;;4.88;4.47;;;8.30;99.90;;;;;;5072932;28;20200;-67
2021/10/26 05:31:27;;;;;;;6.45;5.10;;;8.30;99.90;;;;;;5072772;28;20582;-67
2021/10/26 05:33:53;;;;;;;5.97;5.20;;;8.40;99.90;;;;;;5073021;28;20274;-68
2021/10/26 05:36:19;;;;;;;4.53;4.10;;;8.40;99.90;;;;;;5072559;28;20262;-66
2021/10/26 05:38:45;;;;;;;6.57;5.60;;;8.40;99.90;;;;;;5072860;28;20965;-66
2021/10/26 05:41:11;;;;;;;6.43;5.83;;;8.40;99.90;;;;;;5073407;28;20668;-66
2021/10/26 05:43:38;;;;;;;5.95;5.35;;;8.40;99.90;;;;;;5073148;28;20230;-67
2021/10/26 05:46:04;;;;;;;5.63;5.13;;;8.50;99.90;;;;;;5073092;28;20176;-70
2021/10/26 05:48:32;;;;;;;5.80;4.72;;;8.50;99.90;;;;;;5072656;28;20552;-69
2021/10/26 05:51:01;;;;;;;5.72;4.43;;;8.50;99.90;;;;;;5072820;28;20686;-69
2021/10/26 05:53:29;;;;;;;7.95;5.97;;;8.50;99.90;;;;;;5073379;28;20172;-69
2021/10/26 05:55:55;;;;;;;7.30;5.40;;;8.50;99.90;;;;;;5071795;28;20712;-68
2021/10/26 05:58:21;;;;;;;5.30;4.77;;;8.50;99.90;;;;;;5072723;28;20263;-68
2021/10/26 06:00:46;;;;;;;5.40;4.90;;;8.50;99.90;;;;;;5073194;28;20670;-70
2021/10/26 06:03:12;;;;;;;5.23;4.77;;;8.60;99.90;;;;;;5073305;28;20176;-68
2021/10/26 06:05:38;;;;;;;6.90;5.13;;;8.60;99.90;;;;;;5071758;28;20172;-70
2021/10/26 06:08:06;;;;;;;6.25;4.93;;;8.60;99.90;;;;;;5071033;28;20431;-68
2021/10/26 06:10:33;;;;;;;5.50;4.75;;;8.60;99.90;;;;;;5072730;28;20655;-70
2021/10/26 06:13:05;;;;;;;4.65;4.35;;;8.50;99.90;;;;;;5072955;28;20251;-69
2021/10/26 06:15:31;;;;;;;8.38;7.57;;;8.50;99.90;;;;;;5072709;28;20183;-68
2021/10/26 06:17:56;;;;;;;6.50;5.20;;;8.50;99.90;;;;;;5072463;28;20192;-69
2021/10/26 06:20:22;;;;;;;9.30;6.20;;;8.40;99.90;;;;;;5072752;28;20229;-68
2021/10/26 06:22:48;;;;;;;8.00;5.37;;;8.40;99.90;;;;;;5071797;28;20172;-69
2021/10/26 06:25:13;;;;;;;8.40;5.70;;;8.40;99.90;;;;;;5070753;28;20172;-70
2021/10/26 06:27:39;;;;;;;6.90;6.20;;;8.40;99.90;;;;;;5071383;28;20199;-69
2021/10/26 06:30:05;;;;;;;5.90;5.20;;;8.40;99.90;;;;;;5074665;28;20258;-68
2021/10/26 06:32:31;;;;;;;6.80;6.15;;;8.40;99.90;;;;;;5074776;28;20168;-68
2021/10/26 06:34:57;;;;;;;4.43;4.03;;;8.50;99.90;;;;;;5074791;28;20244;-69
2021/10/26 06:37:23;;;;;;;6.73;5.37;;;8.50;99.90;;;;;;5074655;28;20691;-69
2021/10/26 06:39:54;;;;;;;7.93;5.65;;;8.50;99.90;;;;;;5076747;28;20168;-69
2021/10/26 06:42:20;;;;;;;6.32;5.72;;;8.50;99.90;;;;;;5076813;28;20168;-70
2021/10/26 06:44:45;;;;;;;4.63;4.30;;;8.50;99.90;;;;;;5076738;28;20175;-68
2021/10/26 06:47:11;;;;;;;6.97;5.33;;;8.60;99.90;;;;;;5075459;28;20699;-69
2021/10/26 06:49:36;;;;;;;8.97;6.13;;;8.70;99.90;;;;;;5076243;28;20204;-69
2021/10/26 06:52:03;;;;;;;6.00;5.40;;;8.80;99.90;;;;;;5076954;28;20172;-70
2021/10/26 06:54:30;;;;;;;7.53;5.90;;;8.80;99.90;;;;;;5076267;28;20632;-68
2021/10/26 06:56:55;;;;;;;8.98;7.22;;;8.90;99.90;;;;;;5076088;28;20180;-70
2021/10/26 06:59:21;;;;;;;8.13;5.70;;;9.00;99.90;;;;;;5076000;28;20607;-69
2021/10/26 07:01:47;;;;;;;7.77;5.67;;;9.10;99.90;;;;;;5076596;28;20180;-69
2021/10/26 07:04:12;;;;;;;8.63;6.20;;;9.10;99.90;;;;;;5076223;28;20230;-69
2021/10/26 07:06:38;;;;;;;6.50;5.33;;;9.10;99.90;;;;;;5075620;28;20248;-69
2021/10/26 07:09:04;;;;;;;7.63;6.60;;;9.10;99.90;;;;;;5076212;28;20204;-68
2021/10/26 07:11:29;;;;;;;5.80;5.03;;;9.10;99.90;;;;;;5074449;28;20195;-68
2021/10/26 07:13:55;;;;;;;7.20;6.37;;;9.10;99.90;;;;;;5075661;28;20399;-70
2021/10/26 07:16:21;;;;;;;7.63;6.77;;;9.20;99.90;;;;;;5075508;28;20196;-68
2021/10/26 07:18:46;;;;;;;7.70;6.60;;;9.20;99.90;;;;;;5075595;28;20226;-68
2021/10/26 07:21:14;;;;;;;7.57;6.37;;;9.20;99.90;;;;;;5075773;28;20689;-71
2021/10/26 07:23:40;;;;;;;7.97;7.10;;;9.20;99.90;;;;;;5075656;28;20506;-71
2021/10/26 07:26:05;;;;;;;10.75;6.65;;;9.30;99.90;;;;;;5074503;28;20169;-70
2021/10/26 07:28:31;;;;;;;8.27;6.80;;;9.50;99.90;;;;;;5075077;28;20185;-71
2021/10/26 07:30:57;;;;;;;8.40;7.60;;;9.70;99.90;;;;;;5075290;28;20534;-66
2021/10/26 07:33:26;;;;;;;9.20;7.30;;;9.90;99.90;;;;;;5075882;28;20164;-67
2021/10/26 07:35:53;;;;;;;9.90;8.13;;;10.20;99.90;;;;;;5075358;28;20428;-67
2021/10/26 07:38:35;;;;;;;10.95;8.15;;;10.70;99.90;;;;;;5075182;28;20198;-67
2021/10/26 07:41:02;;;;;;;9.73;7.35;;;11.10;99.90;;;;;;5073224;28;20738;-66
2021/10/26 07:43:30;;;;;;;7.00;5.80;;;11.40;99.90;;;;;;5075149;28;20554;-67
2021/10/26 07:45:57;;;;;;;5.23;4.23;;;11.50;99.90;;;;;;5075339;28;20433;-66
2021/10/26 07:48:24;;;;;;;4.70;4.30;;;11.80;99.90;;;;;;5074442;28;20428;-67
2021/10/26 07:50:50;;;;;;;4.73;4.43;;;12.20;99.90;;;;;;5075275;28;20418;-70
2021/10/26 07:53:17;;;;;;;7.10;5.07;;;12.50;99.90;;;;;;5075130;28;20414;-67
2021/10/26 07:55:43;;;;;;;6.30;5.23;;;12.60;99.90;;;;;;5075136;28;20412;-68
2021/10/26 07:58:09;;;;;;;6.50;5.97;;;12.70;99.90;;;;;;5074344;28;20856;-67
2021/10/26 08:00:34;;;;;;;4.83;4.23;;;13.20;99.90;;;;;;5074877;28;20446;-67
2021/10/26 08:03:00;;;;;;;5.10;4.40;;;13.80;99.90;;;;;;5075024;28;20173;-67
2021/10/26 08:05:26;;;;;;;6.67;4.43;;;14.10;99.90;;;;;;5074897;28;20182;-67
2021/10/26 08:07:52;;;;;;;6.23;4.40;;;14.40;99.90;;;;;;5074015;28;20571;-68
2021/10/26 08:10:18;;;;;;;5.20;4.03;;;14.60;99.90;;;;;;5074679;28;20467;-67
2021/10/26 08:12:43;;;;;;;4.77;4.27;;;14.60;99.90;;;;;;5074641;28;20592;-66
2021/10/26 08:15:09;;;;;;;5.43;4.93;;;14.60;99.90;;;;;;5074938;28;20703;-68
2021/10/26 08:17:35;;;;;;;4.73;4.20;;;14.40;99.90;;;;;;5074294;28;20232;-67
2021/10/26 08:20:01;;;;;;;4.80;4.40;;;14.30;99.90;;;;;;5074217;28;20177;-66
2021/10/26 08:22:27;;;;;;;5.80;5.20;;;14.20;99.90;;;;;;5074446;28;20209;-68
2021/10/26 08:24:58;;;;;;;5.03;4.47;;;13.90;99.90;;;;;;5074718;28;20767;-67
2021/10/26 08:27:24;;;;;;;5.37;4.77;;;13.80;99.90;;;;;;5074108;28;20887;-67
2021/10/26 08:29:55;;;;;;;6.90;5.07;;;13.70;99.90;;;;;;5074442;28;20497;-66
2021/10/26 08:37:39;;;;;;;5.23;4.73;;;14.00;99.90;;;;;;5074146;28;20438;-69
2021/10/26 08:40:06;;;;;;;5.37;4.87;;;14.20;99.90;;;;;;5074270;28;20484;-68
2021/10/26 08:42:31;;;;;;;5.07;4.57;;;14.50;99.90;;;;;;5073971;28;20374;-68
2021/10/26 08:44:57;;;;;;;5.20;4.67;;;14.80;99.90;;;;;;5074312;28;20450;-67
2021/10/26 08:47:24;;;;;;;5.20;4.80;;;15.30;99.90;;;;;;5073407;28;20191;-68
2021/10/26 08:49:51;;;;;;;6.63;5.33;;;16.00;99.90;;;;;;5072822;28;20889;-70
2021/10/26 08:52:19;;;;;;;5.40;4.63;;;17.00;99.90;;;;;;5073044;28;20469;-68
2021/10/26 08:54:46;;;;;;;4.97;4.57;;;17.90;99.90;;;;;;5072808;28;20421;-68
2021/10/26 08:57:12;;;;;;;5.80;4.30;;;18.60;99.90;;;;;;5073441;28;20395;-67
2021/10/26 08:59:37;;;;;;;4.50;4.10;;;19.30;99.90;;;;;;5073781;28;20782;-67
2021/10/26 09:02:04;;;;;;;4.57;4.10;;;19.90;99.90;;;;;;5073971;28;20583;-65
2021/10/26 09:04:35;;;;;;;4.50;4.10;;;20.20;99.90;;;;;;5073891;28;20693;-66
2021/10/26 09:07:05;;;;;;;4.57;4.17;;;20.20;99.90;;;;;;5073308;28;20834;-67
2021/10/26 09:09:35;;;;;;;3.53;3.20;;;20.20;99.90;;;;;;5073548;28;20441;-66
2021/10/26 09:17:49;;;;;;;4.30;4.00;;;18.90;99.90;;;;;;5073277;28;20476;-68
2021/10/26 09:20:18;;;;;;;4.53;4.13;;;18.30;99.90;;;;;;5073799;28;20415;-67
2021/10/26 09:22:51;;;;;;;4.43;3.80;;;17.90;99.90;;;;;;5073356;28;20414;-68
2021/10/26 09:25:20;;;;;;;5.40;4.27;;;17.70;99.90;;;;;;5073490;28;20417;-67
2021/10/26 09:27:46;;;;;;;4.53;4.13;;;17.80;99.90;;;;;;5073008;28;20427;-67
2021/10/26 09:30:16;;;;;;;4.67;3.83;;;18.20;99.90;;;;;;5073402;28;20447;-68
2021/10/26 09:32:47;;;;;;;5.37;4.80;;;18.80;99.90;;;;;;5073134;28;20435;-68
2021/10/26 09:35:19;;;;;;;3.70;3.40;;;19.60;99.90;;;;;;5073471;28;20439;-68
2021/10/26 09:37:49;;;;;;;4.07;3.60;;;20.30;99.90;;;;;;5071588;28;20846;-67
2021/10/26 09:40:16;;;;;;;4.10;3.77;;;21.00;99.90;;;;;;5073496;28;20377;-66
2021/10/26 09:42:48;;;;;;;4.10;3.70;;;21.90;99.90;;;;;;5073419;28;20978;-67
2021/10/26 09:45:26;;;;;;;3.93;3.60;;;22.50;99.90;;;;;;5073356;28;20376;-66
2021/10/26 09:48:00;;;;;;;5.33;3.70;;;23.00;99.60;;;;;;5073087;28;20515;-68
2021/10/26 09:50:30;;;;;;;4.13;3.77;;;23.60;98.60;;;;;;5073350;28;20937;-67
2021/10/26 09:53:08;;;;;;;3.90;3.20;;;24.10;97.20;;;;;;5071913;28;20422;-67
2021/10/26 09:55:46;;;;;;;3.20;2.90;;;23.90;96.00;;;;;;5073221;28;20468;-68
2021/10/26 09:58:14;;;;;;;7.00;3.67;;;23.20;93.80;;;;;;5072305;28;20875;-65
2021/10/26 10:00:42;;;;;;;4.17;3.77;;;22.40;95.70;;;;;;5073072;28;20770;-64
2021/10/26 10:03:26;;;;;;;3.40;3.13;;;21.60;95.40;;;;;;5072915;28;20893;-65
2021/10/26 10:05:54;;;;;;;3.70;3.40;;;21.10;96.90;;;;;;5073758;28;20421;-65
2021/10/26 10:08:28;;;;;;;3.40;3.10;;;20.70;97.80;;;;;;5072840;28;20398;-65
2021/10/26 10:10:55;;;;;;;4.00;3.03;;;20.20;97.40;;;;;;5074050;28;20377;-65
2021/10/26 10:13:27;;;;;;;2.70;2.50;;;19.80;99.10;;;;;;5074314;28;20428;-65
2021/10/26 10:15:53;;;;;;;3.30;3.00;;;19.70;99.90;;;;;;5073706;28;20509;-66
2021/10/26 10:18:21;;;;;;;3.70;3.40;;;19.70;99.90;;;;;;5072572;28;20851;-66
2021/10/26 10:20:55;;;;;;;3.10;2.80;;;19.70;99.90;;;;;;5075137;28;20372;-67
2021/10/26 10:23:22;;;;;;;3.10;2.90;;;20.00;99.90;;;;;;5071228;28;20393;-65
2021/10/26 10:25:48;;;;;;;4.97;3.60;;;20.30;99.90;;;;;;5071887;28;20385;-66
2021/10/26 10:28:30;;;;;;;3.20;3.00;;;20.60;99.90;;;;;;5071711;28;20413;-66
2021/10/26 10:31:02;;;;;;;3.30;3.07;;;21.00;99.40;;;;;;5069065;28;20423;-66
2021/10/26 10:33:28;;;;;;;3.60;3.30;;;21.30;97.70;;;;;;5072869;28;20488;-64
2021/10/26 10:35:57;;;;;;;4.10;3.10;;;21.60;97.30;;;;;;5072634;28;20434;-66
2021/10/26 10:38:26;;;;;;;2.57;2.37;;;21.80;97.80;;;;;;5071224;28;20443;-65
2021/10/26 10:41:11;;;;;;;5.50;2.63;;;21.70;97.70;;;;;;5071599;28;20374;-65
2021/10/26 10:43:38;;;;;;;2.40;2.07;;;21.60;96.40;;;;;;5072479;28;20434;-67
2021/10/26 10:46:03;;;;;;;2.00;1.90;;;21.60;97.70;;;;;;5072610;28;20432;-68
2021/10/26 10:48:32;;;;;;;1.90;1.80;;;21.50;96.20;;;;;;5072155;28;20427;-67
2021/10/26 10:51:10;;;;;;;2.00;1.90;;;21.20;96.10;;;;;;5072583;28;20169;-67
2021/10/26 10:53:36;;;;;;;3.70;3.00;;;20.60;96.40;;;;;;5072539;28;20374;-66
2021/10/26 10:56:18;;;;;;;2.17;2.07;;;20.40;97.70;;;;;;5072589;28;20403;-67
2021/10/26 10:58:45;;;;;;;2.30;2.20;;;20.10;98.20;;;;;;5072398;28;20419;-64
2021/10/26 11:01:20;;;;;;;1.87;1.77;;;19.90;99.00;;;;;;5072360;28;20414;-64
2021/10/26 11:03:46;;;;;;;2.07;1.97;;;19.70;98.20;;;;;;5072332;28;20411;-66
2021/10/26 11:06:40;;;;;;;2.03;1.93;;;19.30;99.20;;;;;;5072291;28;20539;-66
2021/10/26 11:09:28;;;;;;;1.80;1.70;;;19.40;99.70;;;;;;5072444;28;20970;-67
2021/10/26 11:12:30;;;;;;;2.43;2.33;;;19.40;99.20;;;;;;5072488;28;20447;-66
2021/10/26 11:15:19;;;;;;;2.70;2.20;;;19.30;99.10;;;;;;5073024;28;20456;-66
2021/10/26 11:17:46;;;;;;;2.73;2.53;;;19.20;99.60;;;;;;5075580;28;20390;-65
2021/10/26 11:20:27;;;;;;;3.33;2.90;;;19.10;99.90;;;;;;5075721;28;20411;-67
2021/10/26 11:23:01;;;;;;;5.30;2.43;;;18.90;99.90;;;;;;5074559;28;20907;-68
2021/10/26 11:25:35;;;;;;;2.03;1.83;;;18.90;99.90;;;;;;5075990;28;20430;-66
2021/10/26 11:28:13;;;;;;;2.27;2.17;;;18.90;99.90;;;;;;5075159;28;20791;-68
2021/10/26 11:30:44;;;;;;;3.13;2.23;;;18.80;99.90;;;;;;5075779;28;20526;-67
2021/10/26 11:33:10;;;;;;;3.00;2.60;;;18.70;99.90;;;;;;5075633;28;20908;-68
2021/10/26 11:35:59;;;;;;;2.40;2.20;;;18.60;99.90;;;;;;5075618;28;20480;-66
2021/10/26 11:38:27;;;;;;;2.50;2.30;;;18.60;99.90;;;;;;5075093;28;20453;-67
2021/10/26 11:40:57;;;;;;;2.90;2.70;;;18.60;99.90;;;;;;5075571;28;20451;-66
2021/10/26 11:43:24;;;;;;;3.83;1.93;;;18.60;99.90;;;;;;5075343;28;20374;-66
2021/10/26 11:45:57;;;;;;;4.23;2.83;;;18.60;99.90;;;;;;5075571;28;20385;-66
2021/10/26 11:48:43;;;;;;;4.03;3.10;;;18.60;99.90;;;;;;5075026;28;20459;-67
2021/10/26 11:51:37;;;;;;;3.40;3.10;;;18.60;99.90;;;;;;5074882;28;20405;-67
2021/10/26 11:54:16;;;;;;;3.33;2.00;;;18.70;99.90;;;;;;5075517;28;20389;-68
2021/10/26 11:56:55;;;;;;;2.37;2.17;;;18.70;99.90;;;;;;5074969;28;20406;-66
2021/10/26 11:59:26;;;;;;;1.53;1.40;;;18.80;99.90;;;;;;5075133;28;20417;-68
2021/10/26 12:01:53;;;;;;;2.20;2.00;;;18.70;99.90;;;;;;5074893;28;20374;-67
2021/10/26 12:04:31;;;;;;;4.00;2.87;;;18.60;99.90;;;;;;5073680;28;20447;-70
2021/10/26 12:07:00;;;;;;;5.40;2.97;;;18.50;99.90;;;;;;5074743;28;20456;-69
2021/10/26 12:09:28;;;;;;;1.97;1.80;;;18.30;99.90;;;;;;5074743;28;20441;-69
2021/10/26 12:11:56;;;;;;;1.80;1.70;;;18.10;99.90;;;;;;5075004;28;20479;-69
2021/10/26 12:14:32;;;;;;;2.47;1.87;;;18.00;99.90;;;;;;5073824;28;20506;-69
2021/10/26 12:17:10;;;;;;;1.87;1.77;;;17.80;99.90;;;;;;5073348;28;20456;-69
2021/10/26 12:19:39;;;;;;;2.07;1.87;;;17.60;99.90;;;;;;5074627;28;20405;-68
2021/10/26 12:22:06;;;;;;;1.67;1.57;;;17.40;99.90;;;;;;5074784;28;20410;-68
2021/10/26 12:24:33;;;;;;;5.63;1.97;;;17.30;99.90;;;;;;5072494;28;20398;-69
2021/10/26 12:27:03;;;;;;;1.70;1.60;;;17.20;99.90;;;;;;5071837;28;20770;-69
2021/10/26 12:29:31;;;;;;;1.77;1.67;;;17.10;99.90;;;;;;5073339;28;20457;-69
2021/10/26 12:31:58;;;;;;;4.50;1.60;;;17.00;99.90;;;;;;5072595;28;20769;-69
2021/10/26 12:34:24;;;;;;;2.00;1.87;;;17.00;99.90;;;;;;5072507;28;20412;-70
2021/10/26 12:36:50;;;;;;;3.50;2.27;;;17.00;99.90;;;;;;5071956;28;20408;-70
2021/10/26 12:39:24;;;;;;;1.93;1.73;;;16.90;99.90;;;;;;5072171;28;20435;-70
2021/10/26 12:41:50;;;;;;;1.67;1.40;;;16.90;99.90;;;;;;5072433;28;20926;-69
2021/10/26 12:44:20;;;;;;;3.63;1.83;;;16.80;99.90;;;;;;5072346;28;20413;-69
2021/10/26 12:47:01;;;;;;;1.37;1.27;;;16.80;99.90;;;;;;5071964;28;20508;-69
2021/10/26 12:49:35;;;;;;;2.23;1.73;;;16.80;99.90;;;;;;5072364;28;20763;-70
2021/10/26 12:52:12;;;;;;;3.37;2.20;;;16.80;99.90;;;;;;5072197;28;20406;-68
2021/10/26 12:54:38;;;;;;;1.70;1.60;;;16.80;99.90;;;;;;5072774;28;20441;-68
2021/10/26 12:57:04;;;;;;;1.20;1.20;;;16.80;99.90;;;;;;5073855;28;20764;-70
2021/10/26 12:59:31;;;;;;;1.90;1.30;;;16.90;99.90;;;;;;5074358;28;20202;-69
2021/10/26 13:02:10;;;;;;;1.83;1.73;;;16.90;99.90;;;;;;5074202;28;20426;-69
2021/10/26 13:04:39;;;;;;;2.70;1.50;;;17.00;99.90;;;;;;5074061;28;20424;-69
2021/10/26 13:07:09;;;;;;;3.03;1.00;;;16.90;99.90;;;;;;5073518;28;20513;-68
2021/10/26 13:09:51;;;;;;;2.20;2.00;;;16.90;99.90;;;;;;5074006;28;20999;-69